sensor_id;sensor_type;location;lat;lon;timestamp;P1;durP1;ratioP1;P2;durP2;ratioP2
71475;SDS011;59286;59.274;17.974;2023-06-26T00:01:01;4.90;;;3.97;;
71475;SDS011;59286;59.274;17.974;2023-06-26T00:03:26;4.25;;;3.85;;
71475;SDS011;59286;59.274;17.974;2023-06-26T00:05:53;4.53;;;3.25;;
71475;SDS011;59286;59.274;17.974;2023-06-26T00:08:19;6.38;;;4.13;;
71475;SDS011;59286;59.274;17.974;2023-06-26T00:10:44;5.10;;;3.30;;
71475;SDS011;59286;59.274;17.974;2023-06-26T00:13:11;4.28;;;3.20;;
71475;SDS011;59286;59.274;17.974;2023-06-26T00:15:37;3.58;;;2.80;;
71475;SDS011;59286;59.274;17.974;2023-06-26T00:18:02;5.47;;;3.25;;
71475;SDS011;59286;59.274;17.974;2023-06-26T00:20:28;3.75;;;3.15;;
71475;SDS011;59286;59.274;17.974;2023-06-26T00:22:53;6.57;;;3.42;;
71475;SDS011;59286;59.274;17.974;2023-06-26T00:25:20;5.82;;;3.03;;
71475;SDS011;59286;59.274;17.974;2023-06-26T00:27:45;4.95;;;4.10;;
71475;SDS011;59286;59.274;17.974;2023-06-26T00:30:11;6.65;;;3.70;;
71475;SDS011;59286;59.274;17.974;2023-06-26T00:32:36;4.13;;;3.65;;
71475;SDS011;59286;59.274;17.974;2023-06-26T00:35:02;5.97;;;3.88;;
71475;SDS011;59286;59.274;17.974;2023-06-26T00:37:27;4.47;;;3.58;;
71475;SDS011;59286;59.274;17.974;2023-06-26T00:39:52;5.13;;;4.00;;
71475;SDS011;59286;59.274;17.974;2023-06-26T00:42:18;4.20;;;3.60;;
71475;SDS011;59286;59.274;17.974;2023-06-26T00:44:43;4.78;;;3.70;;
71475;SDS011;59286;59.274;17.974;2023-06-26T00:47:09;6.57;;;3.58;;
71475;SDS011;59286;59.274;17.974;2023-06-26T00:49:39;4.50;;;3.38;;
71475;SDS011;59286;59.274;17.974;2023-06-26T00:52:04;3.58;;;3.10;;
71475;SDS011;59286;59.274;17.974;2023-06-26T00:54:31;3.30;;;3.00;;
71475;SDS011;59286;59.274;17.974;2023-06-26T00:56:56;3.30;;;3.00;;
71475;SDS011;59286;59.274;17.974;2023-06-26T00:59:22;5.50;;;3.05;;
71475;SDS011;59286;59.274;17.974;2023-06-26T01:01:48;4.78;;;2.85;;
71475;SDS011;59286;59.274;17.974;2023-06-26T01:04:13;6.97;;;2.72;;
71475;SDS011;59286;59.274;17.974;2023-06-26T01:06:43;4.35;;;3.05;;
71475;SDS011;59286;59.274;17.974;2023-06-26T01:09:13;5.07;;;3.30;;
71475;SDS011;59286;59.274;17.974;2023-06-26T01:11:41;4.55;;;3.00;;
71475;SDS011;59286;59.274;17.974;2023-06-26T01:14:06;4.72;;;3.40;;
71475;SDS011;59286;59.274;17.974;2023-06-26T01:16:32;5.43;;;3.72;;
71475;SDS011;59286;59.274;17.974;2023-06-26T01:18:59;3.30;;;3.00;;
71475;SDS011;59286;59.274;17.974;2023-06-26T01:21:24;4.03;;;3.10;;
71475;SDS011;59286;59.274;17.974;2023-06-26T01:24:12;4.68;;;3.13;;
71475;SDS011;59286;59.274;17.974;2023-06-26T01:26:45;5.18;;;3.28;;
71475;SDS011;59286;59.274;17.974;2023-06-26T01:29:15;5.57;;;3.08;;
71475;SDS011;59286;59.274;17.974;2023-06-26T01:31:43;3.33;;;3.03;;
71475;SDS011;59286;59.274;17.974;2023-06-26T01:34:11;3.55;;;3.00;;
71475;SDS011;59286;59.274;17.974;2023-06-26T01:36:36;4.60;;;3.42;;
71475;SDS011;59286;59.274;17.974;2023-06-26T01:39:02;3.38;;;2.75;;
71475;SDS011;59286;59.274;17.974;2023-06-26T01:41:27;3.53;;;3.03;;
71475;SDS011;59286;59.274;17.974;2023-06-26T01:44:05;3.55;;;3.25;;
71475;SDS011;59286;59.274;17.974;2023-06-26T01:46:47;6.57;;;3.58;;
71475;SDS011;59286;59.274;17.974;2023-06-26T01:49:32;7.63;;;4.20;;
71475;SDS011;59286;59.274;17.974;2023-06-26T01:54:42;6.00;;;3.47;;
71475;SDS011;59286;59.274;17.974;2023-06-26T01:57:18;4.40;;;3.20;;
71475;SDS011;59286;59.274;17.974;2023-06-26T01:59:47;6.88;;;3.40;;
71475;SDS011;59286;59.274;17.974;2023-06-26T02:02:13;4.35;;;3.40;;
71475;SDS011;59286;59.274;17.974;2023-06-26T02:04:39;5.28;;;3.70;;
71475;SDS011;59286;59.274;17.974;2023-06-26T02:07:05;4.45;;;3.30;;
71475;SDS011;59286;59.274;17.974;2023-06-26T02:09:30;4.88;;;3.55;;
71475;SDS011;59286;59.274;17.974;2023-06-26T02:11:55;6.95;;;3.35;;
71475;SDS011;59286;59.274;17.974;2023-06-26T02:14:21;4.65;;;3.65;;
71475;SDS011;59286;59.274;17.974;2023-06-26T02:16:46;4.55;;;3.40;;
71475;SDS011;59286;59.274;17.974;2023-06-26T02:19:11;4.70;;;3.15;;
71475;SDS011;59286;59.274;17.974;2023-06-26T02:21:37;5.40;;;3.72;;
71475;SDS011;59286;59.274;17.974;2023-06-26T02:24:03;4.85;;;3.58;;
71475;SDS011;59286;59.274;17.974;2023-06-26T02:26:29;5.38;;;3.45;;
71475;SDS011;59286;59.274;17.974;2023-06-26T02:28:55;4.80;;;3.20;;
71475;SDS011;59286;59.274;17.974;2023-06-26T02:31:20;3.50;;;3.17;;
71475;SDS011;59286;59.274;17.974;2023-06-26T02:33:45;6.10;;;3.55;;
71475;SDS011;59286;59.274;17.974;2023-06-26T02:36:11;3.90;;;3.42;;
71475;SDS011;59286;59.274;17.974;2023-06-26T02:38:36;4.53;;;3.40;;
71475;SDS011;59286;59.274;17.974;2023-06-26T02:41:01;3.42;;;3.10;;
71475;SDS011;59286;59.274;17.974;2023-06-26T02:43:27;4.57;;;2.70;;
71475;SDS011;59286;59.274;17.974;2023-06-26T02:45:52;4.82;;;3.10;;
71475;SDS011;59286;59.274;17.974;2023-06-26T02:48:18;5.13;;;3.35;;
71475;SDS011;59286;59.274;17.974;2023-06-26T02:50:43;5.10;;;3.30;;
71475;SDS011;59286;59.274;17.974;2023-06-26T02:53:11;3.22;;;2.92;;
71475;SDS011;59286;59.274;17.974;2023-06-26T02:55:37;3.95;;;3.03;;
71475;SDS011;59286;59.274;17.974;2023-06-26T02:58:02;3.95;;;2.80;;
71475;SDS011;59286;59.274;17.974;2023-06-26T03:00:27;2.92;;;2.70;;
71475;SDS011;59286;59.274;17.974;2023-06-26T03:02:54;4.22;;;3.20;;
71475;SDS011;59286;59.274;17.974;2023-06-26T03:05:20;5.35;;;3.92;;
71475;SDS011;59286;59.274;17.974;2023-06-26T03:07:46;5.72;;;4.05;;
71475;SDS011;59286;59.274;17.974;2023-06-26T03:10:11;3.70;;;3.08;;
71475;SDS011;59286;59.274;17.974;2023-06-26T03:12:37;3.70;;;3.10;;
71475;SDS011;59286;59.274;17.974;2023-06-26T03:15:02;3.30;;;2.97;;
71475;SDS011;59286;59.274;17.974;2023-06-26T03:17:28;4.40;;;2.92;;
71475;SDS011;59286;59.274;17.974;2023-06-26T03:19:53;5.32;;;3.42;;
71475;SDS011;59286;59.274;17.974;2023-06-26T03:22:18;5.53;;;3.30;;
71475;SDS011;59286;59.274;17.974;2023-06-26T03:24:44;3.45;;;3.15;;
71475;SDS011;59286;59.274;17.974;2023-06-26T03:27:10;4.63;;;3.30;;
71475;SDS011;59286;59.274;17.974;2023-06-26T03:29:36;3.53;;;3.22;;
71475;SDS011;59286;59.274;17.974;2023-06-26T03:32:01;3.55;;;3.25;;
71475;SDS011;59286;59.274;17.974;2023-06-26T03:34:26;4.95;;;3.75;;
71475;SDS011;59286;59.274;17.974;2023-06-26T03:36:52;3.53;;;2.95;;
71475;SDS011;59286;59.274;17.974;2023-06-26T03:39:17;4.90;;;3.20;;
71475;SDS011;59286;59.274;17.974;2023-06-26T03:41:42;3.33;;;2.95;;
71475;SDS011;59286;59.274;17.974;2023-06-26T03:44:07;4.50;;;3.42;;
71475;SDS011;59286;59.274;17.974;2023-06-26T03:46:33;3.72;;;3.30;;
71475;SDS011;59286;59.274;17.974;2023-06-26T03:48:58;4.07;;;3.20;;
71475;SDS011;59286;59.274;17.974;2023-06-26T03:51:23;4.97;;;3.28;;
71475;SDS011;59286;59.274;17.974;2023-06-26T03:53:49;5.70;;;3.35;;
71475;SDS011;59286;59.274;17.974;2023-06-26T03:56:14;4.38;;;3.08;;
71475;SDS011;59286;59.274;17.974;2023-06-26T03:58:39;6.07;;;2.95;;
71475;SDS011;59286;59.274;17.974;2023-06-26T04:01:05;4.00;;;2.75;;
71475;SDS011;59286;59.274;17.974;2023-06-26T04:03:30;3.47;;;2.72;;
71475;SDS011;59286;59.274;17.974;2023-06-26T04:05:56;4.97;;;2.50;;
71475;SDS011;59286;59.274;17.974;2023-06-26T04:08:23;2.85;;;2.55;;
71475;SDS011;59286;59.274;17.974;2023-06-26T04:10:51;4.47;;;2.30;;
71475;SDS011;59286;59.274;17.974;2023-06-26T04:13:17;4.13;;;2.28;;
71475;SDS011;59286;59.274;17.974;2023-06-26T04:15:42;2.90;;;2.30;;
71475;SDS011;59286;59.274;17.974;2023-06-26T04:18:07;3.55;;;2.67;;
71475;SDS011;59286;59.274;17.974;2023-06-26T04:20:36;4.68;;;2.10;;
71475;SDS011;59286;59.274;17.974;2023-06-26T04:23:04;5.00;;;2.30;;
71475;SDS011;59286;59.274;17.974;2023-06-26T04:25:29;3.70;;;2.10;;
71475;SDS011;59286;59.274;17.974;2023-06-26T04:27:54;3.83;;;2.38;;
71475;SDS011;59286;59.274;17.974;2023-06-26T04:30:20;3.05;;;2.30;;
71475;SDS011;59286;59.274;17.974;2023-06-26T04:32:45;3.40;;;2.25;;
71475;SDS011;59286;59.274;17.974;2023-06-26T04:35:10;4.68;;;2.15;;
71475;SDS011;59286;59.274;17.974;2023-06-26T04:37:36;5.60;;;2.42;;
71475;SDS011;59286;59.274;17.974;2023-06-26T04:40:01;3.80;;;2.35;;
71475;SDS011;59286;59.274;17.974;2023-06-26T04:42:29;2.92;;;1.98;;
71475;SDS011;59286;59.274;17.974;2023-06-26T04:44:54;3.83;;;2.15;;
71475;SDS011;59286;59.274;17.974;2023-06-26T04:47:19;3.95;;;1.98;;
71475;SDS011;59286;59.274;17.974;2023-06-26T04:49:45;3.70;;;2.22;;
71475;SDS011;59286;59.274;17.974;2023-06-26T04:52:13;2.92;;;2.25;;
71475;SDS011;59286;59.274;17.974;2023-06-26T04:54:39;3.15;;;2.13;;
71475;SDS011;59286;59.274;17.974;2023-06-26T04:57:04;2.05;;;1.80;;
71475;SDS011;59286;59.274;17.974;2023-06-26T04:59:30;3.28;;;1.70;;
71475;SDS011;59286;59.274;17.974;2023-06-26T05:01:56;3.22;;;1.55;;
71475;SDS011;59286;59.274;17.974;2023-06-26T05:04:21;3.65;;;1.63;;
71475;SDS011;59286;59.274;17.974;2023-06-26T05:06:47;2.60;;;1.80;;
71475;SDS011;59286;59.274;17.974;2023-06-26T05:09:13;2.58;;;1.40;;
71475;SDS011;59286;59.274;17.974;2023-06-26T05:11:38;2.60;;;1.80;;
71475;SDS011;59286;59.274;17.974;2023-06-26T05:14:04;2.65;;;1.77;;
71475;SDS011;59286;59.274;17.974;2023-06-26T05:16:32;4.53;;;1.90;;
71475;SDS011;59286;59.274;17.974;2023-06-26T05:18:57;3.22;;;1.50;;
71475;SDS011;59286;59.274;17.974;2023-06-26T05:21:23;4.90;;;2.40;;
71475;SDS011;59286;59.274;17.974;2023-06-26T05:23:48;3.53;;;1.63;;
71475;SDS011;59286;59.274;17.974;2023-06-26T05:26:17;2.70;;;1.60;;
71475;SDS011;59286;59.274;17.974;2023-06-26T05:28:42;2.65;;;1.75;;
71475;SDS011;59286;59.274;17.974;2023-06-26T05:31:13;1.67;;;1.58;;
71475;SDS011;59286;59.274;17.974;2023-06-26T05:33:38;2.28;;;1.70;;
71475;SDS011;59286;59.274;17.974;2023-06-26T05:36:08;3.38;;;1.50;;
71475;SDS011;59286;59.274;17.974;2023-06-26T05:38:34;1.95;;;1.48;;
71475;SDS011;59286;59.274;17.974;2023-06-26T05:41:00;2.55;;;1.65;;
71475;SDS011;59286;59.274;17.974;2023-06-26T05:43:25;1.70;;;1.60;;
71475;SDS011;59286;59.274;17.974;2023-06-26T05:45:50;4.47;;;1.90;;
71475;SDS011;59286;59.274;17.974;2023-06-26T05:48:16;2.63;;;1.70;;
71475;SDS011;59286;59.274;17.974;2023-06-26T05:50:42;4.97;;;2.30;;
71475;SDS011;59286;59.274;17.974;2023-06-26T05:53:08;3.65;;;1.50;;
71475;SDS011;59286;59.274;17.974;2023-06-26T05:55:34;3.63;;;1.95;;
71475;SDS011;59286;59.274;17.974;2023-06-26T05:58:01;5.55;;;1.70;;
71475;SDS011;59286;59.274;17.974;2023-06-26T06:00:27;3.45;;;1.63;;
71475;SDS011;59286;59.274;17.974;2023-06-26T06:02:53;3.35;;;1.85;;
71475;SDS011;59286;59.274;17.974;2023-06-26T06:05:19;4.68;;;1.85;;
71475;SDS011;59286;59.274;17.974;2023-06-26T06:07:45;2.97;;;1.60;;
71475;SDS011;59286;59.274;17.974;2023-06-26T06:10:10;6.68;;;1.90;;
71475;SDS011;59286;59.274;17.974;2023-06-26T06:12:36;5.13;;;1.55;;
71475;SDS011;59286;59.274;17.974;2023-06-26T06:15:01;4.85;;;1.88;;
71475;SDS011;59286;59.274;17.974;2023-06-26T06:17:26;5.82;;;1.73;;
71475;SDS011;59286;59.274;17.974;2023-06-26T06:19:52;2.30;;;1.60;;
71475;SDS011;59286;59.274;17.974;2023-06-26T06:22:17;4.25;;;1.67;;
71475;SDS011;59286;59.274;17.974;2023-06-26T06:24:42;2.95;;;1.80;;
71475;SDS011;59286;59.274;17.974;2023-06-26T06:27:08;4.85;;;1.70;;
71475;SDS011;59286;59.274;17.974;2023-06-26T06:29:34;4.00;;;1.42;;
71475;SDS011;59286;59.274;17.974;2023-06-26T06:31:59;2.83;;;1.33;;
71475;SDS011;59286;59.274;17.974;2023-06-26T06:34:24;4.95;;;1.83;;
71475;SDS011;59286;59.274;17.974;2023-06-26T06:36:50;3.03;;;1.33;;
71475;SDS011;59286;59.274;17.974;2023-06-26T06:39:15;6.95;;;1.80;;
71475;SDS011;59286;59.274;17.974;2023-06-26T06:41:41;3.75;;;1.50;;
71475;SDS011;59286;59.274;17.974;2023-06-26T06:44:06;3.17;;;1.40;;
71475;SDS011;59286;59.274;17.974;2023-06-26T06:46:32;6.97;;;1.50;;
71475;SDS011;59286;59.274;17.974;2023-06-26T06:48:57;2.15;;;1.48;;
71475;SDS011;59286;59.274;17.974;2023-06-26T06:51:22;2.55;;;1.50;;
71475;SDS011;59286;59.274;17.974;2023-06-26T06:53:48;3.10;;;1.40;;
71475;SDS011;59286;59.274;17.974;2023-06-26T06:56:13;2.92;;;1.50;;
71475;SDS011;59286;59.274;17.974;2023-06-26T06:58:39;1.50;;;1.40;;
71475;SDS011;59286;59.274;17.974;2023-06-26T07:01:07;2.90;;;1.33;;
71475;SDS011;59286;59.274;17.974;2023-06-26T07:03:34;3.03;;;1.27;;
71475;SDS011;59286;59.274;17.974;2023-06-26T07:05:59;2.75;;;1.40;;
71475;SDS011;59286;59.274;17.974;2023-06-26T07:08:24;2.15;;;1.40;;
71475;SDS011;59286;59.274;17.974;2023-06-26T07:10:50;1.55;;;1.17;;
71475;SDS011;59286;59.274;17.974;2023-06-26T07:13:15;4.30;;;1.42;;
71475;SDS011;59286;59.274;17.974;2023-06-26T07:15:40;1.35;;;1.13;;
71475;SDS011;59286;59.274;17.974;2023-06-26T07:18:06;1.45;;;1.20;;
71475;SDS011;59286;59.274;17.974;2023-06-26T07:20:31;4.68;;;1.50;;
71475;SDS011;59286;59.274;17.974;2023-06-26T07:22:56;4.25;;;1.40;;
71475;SDS011;59286;59.274;17.974;2023-06-26T07:25:21;1.98;;;1.40;;
71475;SDS011;59286;59.274;17.974;2023-06-26T07:27:47;4.60;;;1.30;;
71475;SDS011;59286;59.274;17.974;2023-06-26T07:30:12;6.38;;;1.40;;
71475;SDS011;59286;59.274;17.974;2023-06-26T07:32:38;3.63;;;1.40;;
71475;SDS011;59286;59.274;17.974;2023-06-26T07:35:05;2.08;;;1.30;;
71475;SDS011;59286;59.274;17.974;2023-06-26T07:37:30;5.03;;;1.35;;
71475;SDS011;59286;59.274;17.974;2023-06-26T07:39:55;1.83;;;1.40;;
71475;SDS011;59286;59.274;17.974;2023-06-26T07:42:21;1.88;;;1.35;;
71475;SDS011;59286;59.274;17.974;2023-06-26T07:44:46;3.20;;;1.65;;
71475;SDS011;59286;59.274;17.974;2023-06-26T07:47:12;3.80;;;1.40;;
71475;SDS011;59286;59.274;17.974;2023-06-26T07:49:37;1.92;;;1.13;;
71475;SDS011;59286;59.274;17.974;2023-06-26T07:52:04;3.58;;;1.17;;
71475;SDS011;59286;59.274;17.974;2023-06-26T07:54:30;2.42;;;1.00;;
71475;SDS011;59286;59.274;17.974;2023-06-26T07:56:59;2.92;;;1.38;;
71475;SDS011;59286;59.274;17.974;2023-06-26T07:59:27;4.18;;;1.20;;
71475;SDS011;59286;59.274;17.974;2023-06-26T08:01:53;2.30;;;1.50;;
71475;SDS011;59286;59.274;17.974;2023-06-26T08:04:20;1.70;;;1.20;;
71475;SDS011;59286;59.274;17.974;2023-06-26T08:06:48;2.70;;;0.95;;
71475;SDS011;59286;59.274;17.974;2023-06-26T08:09:14;1.95;;;0.93;;
71475;SDS011;59286;59.274;17.974;2023-06-26T08:11:39;2.45;;;1.10;;
71475;SDS011;59286;59.274;17.974;2023-06-26T08:14:04;2.72;;;0.80;;
71475;SDS011;59286;59.274;17.974;2023-06-26T08:16:30;4.47;;;1.05;;
71475;SDS011;59286;59.274;17.974;2023-06-26T08:18:55;1.20;;;1.02;;
71475;SDS011;59286;59.274;17.974;2023-06-26T08:21:20;2.20;;;0.90;;
71475;SDS011;59286;59.274;17.974;2023-06-26T08:23:46;1.25;;;0.90;;
71475;SDS011;59286;59.274;17.974;2023-06-26T08:26:11;1.38;;;0.82;;
71475;SDS011;59286;59.274;17.974;2023-06-26T08:28:36;1.75;;;1.00;;
71475;SDS011;59286;59.274;17.974;2023-06-26T08:31:02;2.42;;;1.05;;
71475;SDS011;59286;59.274;17.974;2023-06-26T08:33:27;2.42;;;0.90;;
71475;SDS011;59286;59.274;17.974;2023-06-26T08:35:53;0.80;;;0.80;;
71475;SDS011;59286;59.274;17.974;2023-06-26T08:38:18;1.80;;;1.00;;
71475;SDS011;59286;59.274;17.974;2023-06-26T08:40:46;4.53;;;1.10;;
71475;SDS011;59286;59.274;17.974;2023-06-26T08:43:12;2.40;;;0.90;;
71475;SDS011;59286;59.274;17.974;2023-06-26T08:45:37;1.13;;;1.00;;
71475;SDS011;59286;59.274;17.974;2023-06-26T08:48:02;3.47;;;1.25;;
71475;SDS011;59286;59.274;17.974;2023-06-26T08:50:31;3.53;;;1.08;;
71475;SDS011;59286;59.274;17.974;2023-06-26T08:53:27;2.60;;;1.02;;
71475;SDS011;59286;59.274;17.974;2023-06-26T08:55:48;2.80;;;1.10;;
71475;SDS011;59286;59.274;17.974;2023-06-26T08:58:18;1.67;;;1.10;;
71475;SDS011;59286;59.274;17.974;2023-06-26T09:00:43;1.75;;;1.00;;
71475;SDS011;59286;59.274;17.974;2023-06-26T09:03:09;1.52;;;1.10;;
71475;SDS011;59286;59.274;17.974;2023-06-26T09:05:35;1.42;;;1.10;;
71475;SDS011;59286;59.274;17.974;2023-06-26T09:08:01;1.75;;;0.95;;
71475;SDS011;59286;59.274;17.974;2023-06-26T09:10:26;1.42;;;1.05;;
71475;SDS011;59286;59.274;17.974;2023-06-26T09:12:54;1.20;;;1.08;;
71475;SDS011;59286;59.274;17.974;2023-06-26T09:15:22;1.23;;;1.10;;
71475;SDS011;59286;59.274;17.974;2023-06-26T09:17:48;3.13;;;0.93;;
71475;SDS011;59286;59.274;17.974;2023-06-26T09:20:13;6.60;;;1.40;;
71475;SDS011;59286;59.274;17.974;2023-06-26T09:22:40;1.90;;;1.00;;
71475;SDS011;59286;59.274;17.974;2023-06-26T09:25:07;1.90;;;1.10;;
71475;SDS011;59286;59.274;17.974;2023-06-26T09:27:34;1.50;;;1.10;;
71475;SDS011;59286;59.274;17.974;2023-06-26T09:30:01;1.83;;;1.30;;
71475;SDS011;59286;59.274;17.974;2023-06-26T09:32:33;4.05;;;1.10;;
71475;SDS011;59286;59.274;17.974;2023-06-26T09:35:02;1.67;;;1.20;;
71475;SDS011;59286;59.274;17.974;2023-06-26T09:37:28;1.85;;;1.00;;
71475;SDS011;59286;59.274;17.974;2023-06-26T09:39:54;3.42;;;1.10;;
71475;SDS011;59286;59.274;17.974;2023-06-26T09:42:19;3.10;;;1.10;;
71475;SDS011;59286;59.274;17.974;2023-06-26T09:44:45;3.15;;;1.10;;
71475;SDS011;59286;59.274;17.974;2023-06-26T09:47:11;1.58;;;1.10;;
71475;SDS011;59286;59.274;17.974;2023-06-26T09:49:40;1.75;;;1.30;;
71475;SDS011;59286;59.274;17.974;2023-06-26T09:52:07;3.90;;;1.17;;
71475;SDS011;59286;59.274;17.974;2023-06-26T09:54:33;3.70;;;1.10;;
71475;SDS011;59286;59.274;17.974;2023-06-26T09:57:07;2.50;;;1.10;;
71475;SDS011;59286;59.274;17.974;2023-06-26T09:59:34;1.55;;;1.00;;
71475;SDS011;59286;59.274;17.974;2023-06-26T10:01:59;5.18;;;1.13;;
71475;SDS011;59286;59.274;17.974;2023-06-26T10:04:25;1.75;;;1.20;;
71475;SDS011;59286;59.274;17.974;2023-06-26T10:06:51;1.35;;;1.10;;
71475;SDS011;59286;59.274;17.974;2023-06-26T10:09:19;1.25;;;0.90;;
71475;SDS011;59286;59.274;17.974;2023-06-26T10:14:12;1.25;;;1.10;;
71475;SDS011;59286;59.274;17.974;2023-06-26T10:16:39;2.42;;;0.90;;
71475;SDS011;59286;59.274;17.974;2023-06-26T10:19:08;3.67;;;1.42;;
71475;SDS011;59286;59.274;17.974;2023-06-26T10:21:36;1.77;;;0.90;;
71475;SDS011;59286;59.274;17.974;2023-06-26T10:24:03;1.75;;;1.10;;
71475;SDS011;59286;59.274;17.974;2023-06-26T10:26:30;6.13;;;1.08;;
71475;SDS011;59286;59.274;17.974;2023-06-26T10:28:58;2.20;;;1.08;;
71475;SDS011;59286;59.274;17.974;2023-06-26T10:31:25;1.08;;;0.90;;
71475;SDS011;59286;59.274;17.974;2023-06-26T10:33:53;1.63;;;1.02;;
71475;SDS011;59286;59.274;17.974;2023-06-26T10:36:19;0.90;;;0.90;;
71475;SDS011;59286;59.274;17.974;2023-06-26T10:38:52;3.30;;;1.15;;
71475;SDS011;59286;59.274;17.974;2023-06-26T10:41:22;1.25;;;0.98;;
71475;SDS011;59286;59.274;17.974;2023-06-26T10:44:10;2.05;;;1.10;;
71475;SDS011;59286;59.274;17.974;2023-06-26T10:46:48;1.65;;;0.77;;
71475;SDS011;59286;59.274;17.974;2023-06-26T10:49:14;1.15;;;0.85;;
71475;SDS011;59286;59.274;17.974;2023-06-26T10:51:45;4.80;;;1.20;;
71475;SDS011;59286;59.274;17.974;2023-06-26T10:54:15;2.20;;;1.02;;
71475;SDS011;59286;59.274;17.974;2023-06-26T10:56:42;3.10;;;1.00;;
71475;SDS011;59286;59.274;17.974;2023-06-26T10:59:21;3.50;;;1.17;;
71475;SDS011;59286;59.274;17.974;2023-06-26T11:01:55;2.25;;;1.02;;
71475;SDS011;59286;59.274;17.974;2023-06-26T11:07:16;1.35;;;1.02;;
71475;SDS011;59286;59.274;17.974;2023-06-26T11:12:48;2.83;;;0.88;;
71475;SDS011;59286;59.274;17.974;2023-06-26T11:15:15;1.30;;;1.05;;
71475;SDS011;59286;59.274;17.974;2023-06-26T11:17:42;2.63;;;1.27;;
71475;SDS011;59286;59.274;17.974;2023-06-26T11:20:09;1.27;;;0.75;;
71475;SDS011;59286;59.274;17.974;2023-06-26T11:22:36;3.25;;;1.10;;
71475;SDS011;59286;59.274;17.974;2023-06-26T11:25:03;1.65;;;0.75;;
71475;SDS011;59286;59.274;17.974;2023-06-26T11:27:53;2.85;;;0.93;;
71475;SDS011;59286;59.274;17.974;2023-06-26T11:30:25;0.88;;;0.73;;
71475;SDS011;59286;59.274;17.974;2023-06-26T11:32:51;1.00;;;0.90;;
71475;SDS011;59286;59.274;17.974;2023-06-26T11:35:22;1.15;;;0.82;;
71475;SDS011;59286;59.274;17.974;2023-06-26T11:37:58;2.55;;;0.98;;
71475;SDS011;59286;59.274;17.974;2023-06-26T11:40:30;2.83;;;1.05;;
71475;SDS011;59286;59.274;17.974;2023-06-26T11:42:57;4.07;;;1.00;;
71475;SDS011;59286;59.274;17.974;2023-06-26T11:45:24;2.88;;;1.00;;
71475;SDS011;59286;59.274;17.974;2023-06-26T11:47:50;2.55;;;0.93;;
71475;SDS011;59286;59.274;17.974;2023-06-26T11:50:16;3.20;;;1.05;;
71475;SDS011;59286;59.274;17.974;2023-06-26T11:52:42;1.85;;;0.88;;
71475;SDS011;59286;59.274;17.974;2023-06-26T11:55:08;2.58;;;0.77;;
71475;SDS011;59286;59.274;17.974;2023-06-26T11:57:35;3.58;;;0.70;;
71475;SDS011;59286;59.274;17.974;2023-06-26T12:00:10;1.30;;;0.82;;
71475;SDS011;59286;59.274;17.974;2023-06-26T12:02:36;1.48;;;0.90;;
71475;SDS011;59286;59.274;17.974;2023-06-26T12:05:01;0.88;;;0.70;;
71475;SDS011;59286;59.274;17.974;2023-06-26T12:07:27;0.85;;;0.70;;
71475;SDS011;59286;59.274;17.974;2023-06-26T12:09:53;1.10;;;0.70;;
71475;SDS011;59286;59.274;17.974;2023-06-26T12:12:20;2.17;;;0.98;;
71475;SDS011;59286;59.274;17.974;2023-06-26T12:14:46;1.60;;;0.63;;
71475;SDS011;59286;59.274;17.974;2023-06-26T12:17:12;1.05;;;0.70;;
71475;SDS011;59286;59.274;17.974;2023-06-26T12:19:47;1.60;;;0.80;;
71475;SDS011;59286;59.274;17.974;2023-06-26T12:22:13;0.95;;;0.70;;
71475;SDS011;59286;59.274;17.974;2023-06-26T12:24:38;0.70;;;0.60;;
71475;SDS011;59286;59.274;17.974;2023-06-26T12:27:08;2.60;;;0.75;;
71475;SDS011;59286;59.274;17.974;2023-06-26T12:29:35;2.08;;;0.85;;
71475;SDS011;59286;59.274;17.974;2023-06-26T12:32:01;1.58;;;0.70;;
71475;SDS011;59286;59.274;17.974;2023-06-26T12:34:36;0.88;;;0.70;;
71475;SDS011;59286;59.274;17.974;2023-06-26T12:37:11;2.78;;;0.70;;
71475;SDS011;59286;59.274;17.974;2023-06-26T12:40:15;0.75;;;0.60;;
71475;SDS011;59286;59.274;17.974;2023-06-26T12:42:41;1.45;;;0.52;;
71475;SDS011;59286;59.274;17.974;2023-06-26T12:45:10;0.73;;;0.50;;
71475;SDS011;59286;59.274;17.974;2023-06-26T12:47:36;1.15;;;0.52;;
71475;SDS011;59286;59.274;17.974;2023-06-26T12:50:04;2.53;;;0.82;;
71475;SDS011;59286;59.274;17.974;2023-06-26T12:52:30;1.02;;;0.60;;
71475;SDS011;59286;59.274;17.974;2023-06-26T12:54:55;1.05;;;0.70;;
71475;SDS011;59286;59.274;17.974;2023-06-26T12:57:22;1.40;;;0.63;;
71475;SDS011;59286;59.274;17.974;2023-06-26T12:59:48;1.00;;;0.68;;
71475;SDS011;59286;59.274;17.974;2023-06-26T13:02:13;1.15;;;0.80;;
71475;SDS011;59286;59.274;17.974;2023-06-26T13:04:39;1.35;;;0.60;;
71475;SDS011;59286;59.274;17.974;2023-06-26T13:07:05;3.13;;;0.60;;
71475;SDS011;59286;59.274;17.974;2023-06-26T13:09:34;2.95;;;0.80;;
71475;SDS011;59286;59.274;17.974;2023-06-26T13:12:00;2.30;;;0.80;;
71475;SDS011;59286;59.274;17.974;2023-06-26T13:14:26;1.98;;;0.60;;
71475;SDS011;59286;59.274;17.974;2023-06-26T13:16:52;3.47;;;0.90;;
71475;SDS011;59286;59.274;17.974;2023-06-26T13:19:17;1.30;;;1.02;;
71475;SDS011;59286;59.274;17.974;2023-06-26T13:21:42;1.27;;;0.70;;
71475;SDS011;59286;59.274;17.974;2023-06-26T13:24:08;1.85;;;0.85;;
71475;SDS011;59286;59.274;17.974;2023-06-26T13:26:34;2.00;;;0.80;;
71475;SDS011;59286;59.274;17.974;2023-06-26T13:29:00;0.60;;;0.60;;
71475;SDS011;59286;59.274;17.974;2023-06-26T13:31:25;1.10;;;0.73;;
71475;SDS011;59286;59.274;17.974;2023-06-26T13:33:51;0.73;;;0.60;;
71475;SDS011;59286;59.274;17.974;2023-06-26T13:36:19;0.90;;;0.65;;
71475;SDS011;59286;59.274;17.974;2023-06-26T13:38:46;1.15;;;0.70;;
71475;SDS011;59286;59.274;17.974;2023-06-26T13:41:13;0.80;;;0.60;;
71475;SDS011;59286;59.274;17.974;2023-06-26T13:43:38;0.80;;;0.80;;
71475;SDS011;59286;59.274;17.974;2023-06-26T13:46:03;1.40;;;0.70;;
71475;SDS011;59286;59.274;17.974;2023-06-26T13:48:29;1.75;;;0.75;;
71475;SDS011;59286;59.274;17.974;2023-06-26T13:50:54;0.73;;;0.50;;
71475;SDS011;59286;59.274;17.974;2023-06-26T13:53:21;1.33;;;0.60;;
71475;SDS011;59286;59.274;17.974;2023-06-26T13:55:47;1.08;;;0.60;;
71475;SDS011;59286;59.274;17.974;2023-06-26T13:58:13;5.05;;;0.90;;
71475;SDS011;59286;59.274;17.974;2023-06-26T14:00:38;1.85;;;0.70;;
71475;SDS011;59286;59.274;17.974;2023-06-26T14:03:04;0.95;;;0.60;;
71475;SDS011;59286;59.274;17.974;2023-06-26T14:05:32;2.28;;;0.60;;
71475;SDS011;59286;59.274;17.974;2023-06-26T14:07:58;1.20;;;0.68;;
71475;SDS011;59286;59.274;17.974;2023-06-26T14:10:23;0.80;;;0.60;;
71475;SDS011;59286;59.274;17.974;2023-06-26T14:12:49;1.55;;;0.82;;
71475;SDS011;59286;59.274;17.974;2023-06-26T14:15:15;2.38;;;0.80;;
71475;SDS011;59286;59.274;17.974;2023-06-26T14:17:40;3.53;;;0.77;;
71475;SDS011;59286;59.274;17.974;2023-06-26T14:20:06;1.02;;;0.70;;
71475;SDS011;59286;59.274;17.974;2023-06-26T14:22:37;1.10;;;0.82;;
71475;SDS011;59286;59.274;17.974;2023-06-26T14:25:06;0.70;;;0.65;;
71475;SDS011;59286;59.274;17.974;2023-06-26T14:27:33;1.10;;;0.93;;
71475;SDS011;59286;59.274;17.974;2023-06-26T14:29:59;1.35;;;0.90;;
71475;SDS011;59286;59.274;17.974;2023-06-26T14:32:24;0.77;;;0.60;;
71475;SDS011;59286;59.274;17.974;2023-06-26T14:34:49;0.70;;;0.70;;
71475;SDS011;59286;59.274;17.974;2023-06-26T14:37:15;2.47;;;1.02;;
71475;SDS011;59286;59.274;17.974;2023-06-26T14:39:41;1.23;;;0.70;;
71475;SDS011;59286;59.274;17.974;2023-06-26T14:42:07;2.28;;;0.77;;